Welcome to Northern Hawkes Bay. New Zealand.
PWS Header
      nz Flag



Hit Counter


W3C Valid W3C Valid logo


    Wairoa

Select any of the Stations below to visit their websites.










Historic Data from Weather Underground
Select the location of interest below. Wairoa is the default. Please have patience, this Data is slow to load in.
Northern Hawkes Bay Historical Data
Daily Summary for September 12, 2017 Units:  Metric    English   Both
« Previous Day
Next Day »
Daily Weekly Monthly Yearly Custom
  High: Low: Average:
Temperature: 19.2 °C 3.0 °C 10 °C
Dew Point: 7.8 °C 1.4 °C 4.5 °C
Humidity: 96% 41% 71%
Wind Speed: 21.9km/h 0.0km/h 5.4km/h
Wind Gust: 30.6km/h - -
Wind- - West
Pressure: 1005.0 hPa 1000.9 hPa -
Precipitation: 0.3 mm    
Historical Graphs
 
 
Tabular Data for September 12, 2017
Time Temperature Dew Point Pressure Wind Wind Speed Wind Gust Humidity Rainfall Rate (Hourly) solar
00:01 4.3 °C 3.7 °C 1002.3 hPa North 5.0 km/h 12.2 km/h 96% 0.0 mm 0 W/m2
00:06 4.4 °C 3.8 °C 1002.3 hPa North 3.5 km/h 12.2 km/h 96% 0.0 mm 0 W/m2
00:11 4.4 °C 3.8 °C 1002.3 hPa North 7.2 km/h 13.4 km/h 96% 0.0 mm 0 W/m2
00:16 4.4 °C 3.7 °C 1002.3 hPa North 7.2 km/h 17.2 km/h 95% 0.0 mm 0 W/m2
00:21 4.5 °C 3.8 °C 1002.6 hPa North 3.5 km/h 17.2 km/h 95% 0.0 mm 0 W/m2
00:26 4.5 °C 3.8 °C 1002.6 hPa North 5.0 km/h 13.4 km/h 95% 0.0 mm 0 W/m2
00:31 4.5 °C 3.6 °C 1002.6 hPa North 3.5 km/h 13.4 km/h 94% 0.0 mm 0 W/m2
00:36 4.4 °C 3.5 °C 1002.6 hPa North 6.1 km/h 11.1 km/h 94% 0.0 mm 0 W/m2
00:41 4.4 °C 3.5 °C 1002.6 hPa NNW 5.0 km/h 11.1 km/h 94% 0.0 mm 0 W/m2
00:46 4.4 °C 3.5 °C 1002.6 hPa NNW 5.0 km/h 11.1 km/h 94% 0.0 mm 0 W/m2
00:51 4.2 °C 3.2 °C 1002.6 hPa NNW 2.6 km/h 9.7 km/h 93% 0.0 mm 0 W/m2
00:56 4.2 °C 3.2 °C 1002.6 hPa NNW 6.1 km/h 8.7 km/h 93% 0.0 mm 0 W/m2
01:01 4.2 °C 3.2 °C 1002.3 hPa North 3.5 km/h 9.7 km/h 93% 0.0 mm 0 W/m2
01:06 4.1 °C 3.1 °C 1002.3 hPa North 3.5 km/h 9.7 km/h 93% 0.0 mm 0 W/m2
01:11 4.1 °C 3.1 °C 1002.3 hPa North 6.1 km/h 11.1 km/h 93% 0.0 mm 0 W/m2
01:16 4.2 °C 3.2 °C 1002.3 hPa North 5.0 km/h 11.1 km/h 93% 0.0 mm 0 W/m2
01:21 4.2 °C 3.2 °C 1002.6 hPa North 3.5 km/h 11.1 km/h 93% 0.0 mm 0 W/m2
01:26 4.2 °C 3.2 °C 1002.3 hPa NNW 6.1 km/h 11.1 km/h 93% 0.0 mm 0 W/m2
01:31 4.2 °C 3.2 °C 1002.3 hPa NNW 5.0 km/h 9.7 km/h 93% 0.0 mm 0 W/m2
01:36 4.2 °C 3.2 °C 1002.3 hPa NNW 3.5 km/h 12.2 km/h 93% 0.0 mm 0 W/m2
01:41 4.2 °C 3.0 °C 1002.3 hPa North 5.0 km/h 12.2 km/h 92% 0.0 mm 0 W/m2
01:46 4.2 °C 3.0 °C 1002.3 hPa NNW 5.0 km/h 11.1 km/h 92% 0.0 mm 0 W/m2
01:51 4.2 °C 3.0 °C 1002.3 hPa NNW 6.1 km/h 11.1 km/h 92% 0.0 mm 0 W/m2
01:56 4.2 °C 3.0 °C 1002.3 hPa NNW 6.1 km/h 12.2 km/h 92% 0.0 mm 0 W/m2
02:01 4.2 °C 3.0 °C 1002.3 hPa NNW 6.1 km/h 12.2 km/h 92% 0.0 mm 0 W/m2
02:06 4.2 °C 2.9 °C 1002.3 hPa NW 6.1 km/h 12.2 km/h 91% 0.0 mm 0 W/m2
02:11 4.2 °C 2.9 °C 1002.3 hPa NNW 9.7 km/h 17.2 km/h 91% 0.0 mm 0 W/m2
02:16 4.2 °C 2.9 °C 1002.3 hPa NNW 7.2 km/h 17.2 km/h 91% 0.0 mm 0 W/m2
02:21 4.1 °C 2.6 °C 1002.3 hPa North 9.7 km/h 17.2 km/h 90% 0.0 mm 0 W/m2
02:26 4.0 °C 2.5 °C 1001.9 hPa NNE 7.2 km/h 14.8 km/h 90% 0.0 mm 0 W/m2
02:31 4.0 °C 2.5 °C 1002.3 hPa NNE 6.1 km/h 14.8 km/h 90% 0.0 mm 0 W/m2
02:36 3.9 °C 2.6 °C 1002.3 hPa North 5.0 km/h 14.8 km/h 91% 0.0 mm 0 W/m2
02:41 3.9 °C 2.6 °C 1001.9 hPa North 3.5 km/h 9.7 km/h 91% 0.0 mm 0 W/m2
02:46 3.9 °C 2.6 °C 1001.9 hPa North 7.2 km/h 12.2 km/h 91% 0.0 mm 0 W/m2
02:51 3.9 °C 2.6 °C 1001.9 hPa North 6.1 km/h 13.4 km/h 91% 0.0 mm 0 W/m2
02:56 3.9 °C 2.6 °C 1001.9 hPa North 6.1 km/h 14.8 km/h 91% 0.0 mm 0 W/m2
03:01 3.8 °C 2.4 °C 1001.9 hPa North 5.0 km/h 14.8 km/h 91% 0.0 mm 0 W/m2
03:06 3.7 °C 2.4 °C 1001.9 hPa North 6.1 km/h 14.8 km/h 91% 0.0 mm 0 W/m2
03:11 3.7 °C 2.4 °C 1001.9 hPa North 7.2 km/h 15.8 km/h 91% 0.0 mm 0 W/m2
03:16 3.7 °C 2.4 °C 1001.6 hPa North 8.7 km/h 15.8 km/h 91% 0.0 mm 0 W/m2
03:33 3.7 °C 2.4 °C 1001.6 hPa North 7.2 km/h 12.2 km/h 91% 0.0 mm 0 W/m2
03:38 3.8 °C 2.4 °C 1001.6 hPa North 9.7 km/h 15.8 km/h 91% 0.0 mm 0 W/m2
03:43 3.7 °C 2.2 °C 1001.6 hPa North 8.7 km/h 15.8 km/h 90% 0.0 mm 0 W/m2
03:48 3.6 °C 2.1 °C 1001.6 hPa North 8.7 km/h 14.8 km/h 90% 0.0 mm 0 W/m2
03:53 3.6 °C 2.1 °C 1001.6 hPa North 8.7 km/h 15.8 km/h 90% 0.0 mm 0 W/m2
03:58 3.7 °C 2.2 °C 1001.6 hPa NNE 8.7 km/h 15.8 km/h 90% 0.0 mm 0 W/m2
04:03 3.7 °C 2.2 °C 1001.6 hPa North 7.2 km/h 15.8 km/h 90% 0.0 mm 0 W/m2
04:08 3.7 °C 2.2 °C 1001.9 hPa NNW 9.7 km/h 17.2 km/h 90% 0.0 mm 0 W/m2
04:13 3.6 °C 2.1 °C 1001.9 hPa North 8.7 km/h 19.5 km/h 90% 0.0 mm 0 W/m2
04:18 3.6 °C 1.9 °C 1001.6 hPa North 3.5 km/h 19.5 km/h 89% 0.0 mm 0 W/m2
04:23 3.5 °C 1.9 °C 1001.6 hPa North 8.7 km/h 14.8 km/h 89% 0.0 mm 0 W/m2
04:28 3.3 °C 1.8 °C 1001.6 hPa North 5.0 km/h 14.8 km/h 90% 0.0 mm 0 W/m2
04:33 3.3 °C 1.8 °C 1001.6 hPa NNE 6.1 km/h 14.8 km/h 90% 0.0 mm 0 W/m2
04:38 3.3 °C 1.8 °C 1001.9 hPa North 5.0 km/h 13.4 km/h 90% 0.0 mm 0 W/m2
04:43 3.2 °C 1.7 °C 1001.9 hPa North 8.7 km/h 13.4 km/h 90% 0.0 mm 0 W/m2
05:03 3.5 °C 1.9 °C 1001.9 hPa North 6.1 km/h 14.8 km/h 89% 0.0 mm 0 W/m2
05:08 3.5 °C 1.9 °C 1001.9 hPa North 5.0 km/h 14.8 km/h 89% 0.0 mm 0 W/m2
05:13 3.5 °C 1.9 °C 1001.9 hPa North 5.0 km/h 14.8 km/h 89% 0.0 mm 0 W/m2
05:18 3.5 °C 1.9 °C 1001.9 hPa North 5.0 km/h 12.2 km/h 89% 0.0 mm 0 W/m2
05:23 3.5 °C 1.9 °C 1001.9 hPa North 6.1 km/h 12.2 km/h 89% 0.0 mm 0 W/m2
05:40 3.0 °C 1.4 °C 1001.9 hPa North 3.5 km/h 12.2 km/h 89% 0.0 mm 0 W/m2
05:46 3.0 °C 1.4 °C 1001.9 hPa North 8.7 km/h 12.2 km/h 89% 0.3 mm 0 W/m2
05:51 3.1 °C 1.4 °C 1001.9 hPa North 5.0 km/h 13.4 km/h 89% 0.3 mm 0 W/m2
05:56 3.2 °C 1.6 °C 1001.9 hPa NNW 6.1 km/h 13.4 km/h 89% 0.3 mm 0 W/m2
06:01 3.2 °C 1.6 °C 1001.9 hPa North 6.1 km/h 12.2 km/h 89% 0.3 mm 0 W/m2
06:06 3.3 °C 1.7 °C 1001.9 hPa North 6.1 km/h 12.2 km/h 89% 0.3 mm 0 W/m2
06:11 3.3 °C 1.7 °C 1001.9 hPa North 8.7 km/h 13.4 km/h 89% 0.3 mm 0 W/m2
06:16 3.4 °C 1.8 °C 1001.9 hPa North 5.0 km/h 13.4 km/h 89% 0.3 mm 0 W/m2
06:21 3.4 °C 1.8 °C 1001.9 hPa North 5.0 km/h 13.4 km/h 89% 0.3 mm 2 W/m2
06:26 3.3 °C 1.7 °C 1001.9 hPa NNW 6.1 km/h 12.2 km/h 89% 0.3 mm 4 W/m2
06:31 3.3 °C 1.7 °C 1001.9 hPa North 7.2 km/h 12.2 km/h 89% 0.3 mm 7 W/m2
06:36 3.4 °C 1.8 °C 1001.9 hPa North 6.1 km/h 15.8 km/h 89% 0.3 mm 11 W/m2
06:41 3.5 °C 1.9 °C 1001.9 hPa North 8.7 km/h 15.8 km/h 89% 0.0 mm 17 W/m2
06:46 3.7 °C 2.1 °C 1001.9 hPa North 5.0 km/h 14.8 km/h 89% 0.0 mm 30 W/m2
06:51 4.1 °C 2.1 °C 1002.3 hPa North 7.2 km/h 14.8 km/h 87% 0.0 mm 25 W/m2
06:56 4.3 °C 2.3 °C 1001.9 hPa North 6.1 km/h 14.8 km/h 87% 0.0 mm 29 W/m2
07:01 4.6 °C 2.4 °C 1001.9 hPa North 6.1 km/h 14.8 km/h 86% 0.0 mm 32 W/m2
07:06 4.9 °C 2.6 °C 1002.3 hPa NNW 9.7 km/h 14.8 km/h 85% 0.0 mm 56 W/m2
07:11 5.2 °C 2.7 °C 1002.3 hPa North 6.1 km/h 14.8 km/h 84% 0.0 mm 88 W/m2
07:16 5.7 °C 3.1 °C 1002.3 hPa North 7.2 km/h 13.4 km/h 83% 0.0 mm 80 W/m2
07:21 6.0 °C 2.8 °C 1002.3 hPa North 5.0 km/h 12.2 km/h 80% 0.0 mm 105 W/m2
07:26 6.6 °C 3.2 °C 1002.3 hPa North 6.1 km/h 15.8 km/h 79% 0.0 mm 152 W/m2
07:31 7.2 °C 3.1 °C 1002.3 hPa North 8.7 km/h 18.3 km/h 75% 0.0 mm 178 W/m2
07:36 7.3 °C 2.8 °C 1002.6 hPa North 9.7 km/h 19.5 km/h 73% 0.0 mm 194 W/m2
07:41 7.4 °C 2.7 °C 1002.6 hPa NNW 6.1 km/h 19.5 km/h 72% 0.0 mm 202 W/m2
07:46 7.6 °C 3.1 °C 1002.9 hPa North 9.7 km/h 15.8 km/h 73% 0.0 mm 173 W/m2
07:51 7.6 °C 3.1 °C 1002.9 hPa North 8.7 km/h 14.8 km/h 73% 0.0 mm 180 W/m2
07:56 7.6 °C 3.1 °C 1002.9 hPa NNW 7.2 km/h 15.8 km/h 73% 0.0 mm 189 W/m2
08:01 7.6 °C 3.1 °C 1002.9 hPa NNW 8.7 km/h 20.9 km/h 73% 0.0 mm 206 W/m2
08:06 8.0 °C 3.7 °C 1002.9 hPa NNW 9.7 km/h 20.9 km/h 74% 0.0 mm 190 W/m2
08:11 8.2 °C 3.7 °C 1002.9 hPa NNW 8.7 km/h 14.8 km/h 73% 0.0 mm 124 W/m2
08:16 8.0 °C 3.4 °C 1002.9 hPa NNW 9.7 km/h 14.8 km/h 73% 0.0 mm 151 W/m2
08:21 8.0 °C 3.7 °C 1002.6 hPa NNW 5.0 km/h 13.4 km/h 74% 0.0 mm 143 W/m2
08:26 8.1 °C 3.7 °C 1002.9 hPa NNW 3.5 km/h 15.8 km/h 74% 0.0 mm 131 W/m2
08:31 8.2 °C 3.8 °C 1002.9 hPa North 7.2 km/h 15.8 km/h 74% 0.0 mm 151 W/m2
08:36 8.4 °C 4.2 °C 1002.6 hPa North 8.7 km/h 14.8 km/h 75% 0.0 mm 163 W/m2
08:41 8.9 °C 4.7 °C 1002.9 hPa NNW 6.1 km/h 14.8 km/h 75% 0.0 mm 192 W/m2
08:46 9.4 °C 5.0 °C 1002.6 hPa North 5.0 km/h 13.4 km/h 74% 0.0 mm 199 W/m2
08:51 10.1 °C 5.3 °C 1002.9 hPa NNW 3.5 km/h 13.4 km/h 72% 0.0 mm 189 W/m2
08:56 10.1 °C 5.1 °C 1002.6 hPa NNW 6.1 km/h 13.4 km/h 71% 0.0 mm 193 W/m2
09:01 10.4 °C 5.2 °C 1002.6 hPa NNW 5.0 km/h 13.4 km/h 70% 0.0 mm 268 W/m2
09:06 10.7 °C 5.2 °C 1002.9 hPa North 6.1 km/h 13.4 km/h 69% 0.0 mm 231 W/m2
09:11 11.1 °C 5.2 °C 1002.9 hPa North 6.1 km/h 12.2 km/h 67% 0.0 mm 182 W/m2
09:16 11.1 °C 5.0 °C 1002.6 hPa North 3.5 km/h 12.2 km/h 66% 0.0 mm 199 W/m2
09:21 11.1 °C 4.8 °C 1002.9 hPa North 7.2 km/h 13.4 km/h 65% 0.0 mm 154 W/m2
09:26 11.2 °C 4.9 °C 1002.9 hPa North 8.7 km/h 13.4 km/h 65% 0.0 mm 231 W/m2
09:31 11.5 °C 4.9 °C 1002.9 hPa NNW 5.0 km/h 17.2 km/h 64% 0.0 mm 289 W/m2
09:36 12.1 °C 5.3 °C 1002.9 hPa NNW 6.1 km/h 17.2 km/h 63% 0.0 mm 294 W/m2
09:41 12.7 °C 5.6 °C 1002.6 hPa North 7.2 km/h 17.2 km/h 62% 0.0 mm 279 W/m2
09:46 13.0 °C 5.2 °C 1002.9 hPa NNE 6.1 km/h 14.8 km/h 59% 0.0 mm 249 W/m2
09:51 13.3 °C 5.2 °C 1002.9 hPa North 6.1 km/h 14.8 km/h 58% 0.0 mm 121 W/m2
09:56 13.3 °C 4.7 °C 1002.9 hPa NW 12.2 km/h 18.3 km/h 56% 0.0 mm 80 W/m2
10:01 12.9 °C 4.1 °C 1002.9 hPa NW 6.1 km/h 20.9 km/h 55% 0.0 mm 77 W/m2
10:06 13.1 °C 4.3 °C 1002.9 hPa NW 9.7 km/h 23.3 km/h 55% 0.0 mm 68 W/m2
10:11 13.4 °C 4.6 °C 1002.9 hPa NW 7.2 km/h 23.3 km/h 55% 0.0 mm 65 W/m2
10:16 13.8 °C 5.2 °C 1002.9 hPa NNW 9.7 km/h 18.3 km/h 56% 0.0 mm 66 W/m2
10:21 13.7 °C 5.1 °C 1002.9 hPa NNW 6.1 km/h 19.5 km/h 56% 0.0 mm 74 W/m2
10:26 14.4 °C 5.5 °C 1002.9 hPa NW 12.2 km/h 19.5 km/h 55% 0.0 mm 92 W/m2
10:31 14.4 °C 5.2 °C 1002.9 hPa NNW 8.7 km/h 19.5 km/h 54% 0.0 mm 169 W/m2
10:36 14.4 °C 4.9 °C 1002.9 hPa NNW 9.7 km/h 18.3 km/h 53% 0.0 mm 180 W/m2
10:41 14.3 °C 4.6 °C 1002.6 hPa NW 7.2 km/h 17.2 km/h 52% 0.0 mm 270 W/m2
10:46 14.3 °C 4.6 °C 1002.9 hPa WNW 7.2 km/h 19.5 km/h 52% 0.0 mm 217 W/m2
10:51 15.0 °C 4.9 °C 1002.6 hPa WNW 3.5 km/h 19.5 km/h 51% 0.0 mm 392 W/m2
10:56 14.7 °C 4.9 °C 1002.6 hPa NW 11.1 km/h 21.9 km/h 52% 0.0 mm 426 W/m2
11:01 14.5 °C 4.8 °C 1002.6 hPa NW 3.5 km/h 21.9 km/h 52% 0.0 mm 435 W/m2
11:06 14.7 °C 5.2 °C 1002.3 hPa NW 9.7 km/h 18.3 km/h 53% 0.0 mm 434 W/m2
11:11 14.7 °C 5.5 °C 1002.3 hPa NW 9.7 km/h 24.5 km/h 54% 0.0 mm 445 W/m2
11:16 15.0 °C 4.7 °C 1002.6 hPa NW 8.7 km/h 25.6 km/h 50% 0.0 mm 447 W/m2
11:21 15.0 °C 4.1 °C 1002.3 hPa WNW 21.9 km/h 30.6 km/h 48% 0.0 mm 451 W/m2
11:26 15.0 °C 4.7 °C 1002.3 hPa WNW 11.1 km/h 30.6 km/h 50% 0.0 mm 460 W/m2
11:31 15.1 °C 3.9 °C 1002.3 hPa WNW 7.2 km/h 30.6 km/h 47% 0.0 mm 467 W/m2
11:36 15.5 °C 4.2 °C 1001.9 hPa West 6.1 km/h 21.9 km/h 47% 0.0 mm 470 W/m2
11:41 15.6 °C 4.6 °C 1002.3 hPa WNW 11.1 km/h 19.5 km/h 48% 0.0 mm 478 W/m2
11:46 15.6 °C 4.3 °C 1001.9 hPa WNW 6.1 km/h 24.5 km/h 47% 0.0 mm 527 W/m2
11:51 15.7 °C 4.7 °C 1001.9 hPa WNW 14.8 km/h 24.5 km/h 48% 0.0 mm 523 W/m2
11:56 15.3 °C 4.1 °C 1001.9 hPa WNW 6.1 km/h 23.3 km/h 47% 0.0 mm 131 W/m2
12:01 15.4 °C 5.1 °C 1001.9 hPa West 6.1 km/h 18.3 km/h 50% 0.0 mm 143 W/m2
12:06 15.4 °C 3.8 °C 1001.9 hPa West 6.1 km/h 23.3 km/h 46% 0.0 mm 112 W/m2
12:11 15.7 °C 5.0 °C 1001.9 hPa West 3.5 km/h 23.3 km/h 49% 0.0 mm 524 W/m2
12:16 16.0 °C 4.1 °C 1001.6 hPa West 17.2 km/h 30.6 km/h 45% 0.0 mm 520 W/m2
12:21 15.7 °C 4.1 °C 1001.9 hPa West 9.7 km/h 30.6 km/h 46% 0.0 mm 493 W/m2
12:26 16.4 °C 4.4 °C 1001.6 hPa WNW 14.8 km/h 24.5 km/h 45% 0.0 mm 499 W/m2
12:31 16.4 °C 4.1 °C 1001.6 hPa WNW 18.3 km/h 29.4 km/h 44% 0.0 mm 255 W/m2
12:36 16.3 °C 4.3 °C 1001.6 hPa West 12.2 km/h 29.4 km/h 45% 0.0 mm 516 W/m2
12:41 16.4 °C 4.4 °C 1001.6 hPa West 7.2 km/h 25.6 km/h 45% 0.0 mm 505 W/m2
12:46 17.1 °C 4.8 °C 1001.6 hPa West 7.2 km/h 23.3 km/h 44% 0.0 mm 572 W/m2
12:51 17.6 °C 4.9 °C 1001.6 hPa WNW 9.7 km/h 18.3 km/h 43% 0.0 mm 573 W/m2
12:56 17.8 °C 4.4 °C 1001.6 hPa WNW 11.1 km/h 24.5 km/h 41% 0.0 mm 610 W/m2
13:01 16.6 °C 4.9 °C 1001.6 hPa WSW 9.7 km/h 24.5 km/h 46% 0.0 mm 151 W/m2
13:06 16.1 °C 5.7 °C 1001.6 hPa SW 11.1 km/h 21.9 km/h 50% 0.0 mm 248 W/m2
13:11 16.1 °C 5.9 °C 1001.6 hPa SW 7.2 km/h 15.8 km/h 51% 0.0 mm 153 W/m2
13:16 15.9 °C 6.3 °C 1001.6 hPa WSW 6.1 km/h 15.8 km/h 53% 0.0 mm 136 W/m2
13:21 15.3 °C 6.6 °C 1001.6 hPa WSW 9.7 km/h 17.2 km/h 56% 0.0 mm 128 W/m2
13:26 15.0 °C 6.6 °C 1001.6 hPa SW 8.7 km/h 17.2 km/h 57% 0.0 mm 130 W/m2
13:31 15.2 °C 7.0 °C 1001.6 hPa SW 5.0 km/h 14.8 km/h 58% 0.0 mm 163 W/m2
13:36 15.5 °C 7.0 °C 1001.6 hPa SW 9.7 km/h 12.2 km/h 57% 0.0 mm 527 W/m2
13:42 15.4 °C 6.2 °C 1001.2 hPa South 6.1 km/h 14.8 km/h 54% 0.0 mm 97 W/m2
13:47 15.3 °C 6.3 °C 1001.2 hPa South 6.1 km/h 14.8 km/h 55% 0.0 mm 347 W/m2
13:52 16.1 °C 6.2 °C 1001.2 hPa SSW 9.7 km/h 13.4 km/h 52% 0.0 mm 387 W/m2
13:57 16.6 °C 6.7 °C 1001.2 hPa SSW 7.2 km/h 13.4 km/h 52% 0.0 mm 111 W/m2
14:02 15.9 °C 5.5 °C 1001.2 hPa SSW 3.5 km/h 13.4 km/h 50% 0.0 mm 117 W/m2
14:07 15.4 °C 5.9 °C 1001.2 hPa SW 6.1 km/h 14.8 km/h 53% 0.0 mm 121 W/m2
14:12 15.0 °C 6.1 °C 1001.2 hPa SW 3.5 km/h 14.8 km/h 55% 0.0 mm 79 W/m2
14:17 14.8 °C 6.9 °C 1001.2 hPa SW 7.2 km/h 14.8 km/h 59% 0.0 mm 106 W/m2
14:22 14.7 °C 7.3 °C 1001.6 hPa SW 8.7 km/h 14.8 km/h 61% 0.0 mm 98 W/m2
14:27 14.8 °C 7.1 °C 1001.6 hPa SW 6.1 km/h 15.8 km/h 60% 0.0 mm 127 W/m2
14:32 14.7 °C 7.5 °C 1001.6 hPa SW 6.1 km/h 15.8 km/h 62% 0.0 mm 85 W/m2
14:37 14.5 °C 7.8 °C 1001.6 hPa SW 7.2 km/h 14.8 km/h 64% 0.0 mm 93 W/m2
14:42 14.4 °C 7.2 °C 1001.6 hPa SW 11.1 km/h 19.5 km/h 62% 0.0 mm 85 W/m2
14:47 14.7 °C 7.5 °C 1001.6 hPa WSW 12.2 km/h 21.9 km/h 62% 0.0 mm 91 W/m2
14:52 15.6 °C 6.3 °C 1001.6 hPa WSW 8.7 km/h 23.3 km/h 54% 0.0 mm 87 W/m2
14:57 15.9 °C 6.3 °C 1001.2 hPa WSW 14.8 km/h 23.3 km/h 53% 0.0 mm 163 W/m2
15:02 16.2 °C 6.1 °C 1001.6 hPa WSW 6.1 km/h 23.3 km/h 51% 0.0 mm 274 W/m2
15:07 16.3 °C 5.9 °C 1001.2 hPa WSW 17.2 km/h 24.5 km/h 50% 0.0 mm 111 W/m2
15:13 16.8 °C 6.6 °C 1001.2 hPa WSW 9.7 km/h 24.5 km/h 51% 0.0 mm 296 W/m2
15:19 17.5 °C 6.1 °C 1001.2 hPa West 14.8 km/h 23.3 km/h 47% 0.0 mm 289 W/m2
15:24 17.1 °C 5.1 °C 1001.2 hPa SW 8.7 km/h 23.3 km/h 45% 0.0 mm 280 W/m2
15:27 17.2 °C 5.5 °C 1000.9 hPa WSW 5.0 km/h 23.3 km/h 46% 0.0 mm 274 W/m2
15:32 17.9 °C 5.5 °C 1001.2 hPa SW 3.5 km/h 14.8 km/h 44% 0.0 mm 261 W/m2
15:35 18.2 °C 6.4 °C 1001.2 hPa WSW 2.6 km/h 11.1 km/h 46% 0.0 mm 255 W/m2
15:40 18.0 °C 5.9 °C 1001.6 hPa WSW 5.0 km/h 12.2 km/h 45% 0.0 mm 242 W/m2
15:45 18.4 °C 6.9 °C 1001.2 hPa Calm   12.2 km/h 47% 0.0 mm 228 W/m2
15:50 18.8 °C 6.6 °C 1001.2 hPa West 2.6 km/h 8.7 km/h 45% 0.0 mm 214 W/m2
15:55 19.2 °C 6.7 °C 1001.2 hPa West 1.1 km/h 8.7 km/h 44% 0.0 mm 200 W/m2
16:00 18.7 °C 6.8 °C 1001.2 hPa SW 2.6 km/h 8.7 km/h 46% 0.0 mm 61 W/m2
16:05 17.4 °C 6.3 °C 1001.2 hPa SW 3.5 km/h 8.7 km/h 48% 0.0 mm 140 W/m2
16:10 17.3 °C 5.6 °C 1001.6 hPa WSW 1.1 km/h 8.7 km/h 46% 0.0 mm 106 W/m2
16:15 16.9 °C 6.4 °C 1001.6 hPa SW 3.5 km/h 12.2 km/h 50% 0.0 mm 165 W/m2
16:20 16.6 °C 5.6 °C 1001.2 hPa SW 12.2 km/h 20.9 km/h 48% 0.0 mm 156 W/m2
16:25 16.6 °C 5.2 °C 1001.6 hPa SW 11.1 km/h 25.6 km/h 47% 0.0 mm 137 W/m2
16:30 16.5 °C 6.3 °C 1001.2 hPa SW 6.1 km/h 25.6 km/h 51% 0.0 mm 130 W/m2
16:35 16.5 °C 6.6 °C 1001.6 hPa SW 8.7 km/h 17.2 km/h 52% 0.0 mm 119 W/m2
16:40 16.3 °C 7.0 °C 1001.6 hPa SW 8.7 km/h 15.8 km/h 54% 0.0 mm 93 W/m2
16:46 16.3 °C 6.7 °C 1001.6 hPa WSW 8.7 km/h 15.8 km/h 53% 0.0 mm 82 W/m2
16:51 16.2 °C 6.3 °C 1001.6 hPa WSW 9.7 km/h 14.8 km/h 52% 0.0 mm 71 W/m2
17:09 17.5 °C 6.7 °C 1001.9 hPa Calm   11.1 km/h 49% 0.0 mm 42 W/m2
17:14 17.8 °C 6.7 °C 1001.6 hPa Calm   2.6 km/h 48% 0.0 mm 36 W/m2
17:19 18.3 °C 6.5 °C 1001.9 hPa Calm   2.6 km/h 46% 0.0 mm 28 W/m2
17:24 17.9 °C 5.5 °C 1001.9 hPa WNW 1.1 km/h 6.1 km/h 44% 0.0 mm 25 W/m2
17:29 17.5 °C 5.4 °C 1001.9 hPa Calm   6.1 km/h 45% 0.0 mm 20 W/m2
17:34 17.3 °C 5.3 °C 1001.9 hPa Calm   5.0 km/h 45% 0.0 mm 17 W/m2
17:39 16.9 °C 5.2 °C 1001.9 hPa Calm   1.1 km/h 46% 0.0 mm 9 W/m2
17:44 16.3 °C 5.3 °C 1001.9 hPa Calm     48% 0.0 mm 6 W/m2
17:49 15.9 °C 5.5 °C 1001.9 hPa Calm     50% 0.0 mm 3 W/m2
17:54 15.2 °C 5.7 °C 1001.9 hPa Calm   5.0 km/h 53% 0.0 mm 1 W/m2
17:59 14.5 °C 5.6 °C 1001.9 hPa Calm   5.0 km/h 55% 0.0 mm 0 W/m2
18:04 13.9 °C 5.5 °C 1002.3 hPa Calm   1.1 km/h 57% 0.0 mm 0 W/m2
18:09 13.5 °C 5.4 °C 1002.6 hPa Calm     58% 0.0 mm 0 W/m2
18:14 13.2 °C 5.4 °C 1002.6 hPa Calm     59% 0.0 mm 0 W/m2
18:19 13.0 °C 5.9 °C 1002.3 hPa Calm     62% 0.0 mm 0 W/m2
18:24 12.7 °C 5.8 °C 1002.9 hPa Calm     63% 0.0 mm 0 W/m2
18:29 12.3 °C 5.9 °C 1002.6 hPa Calm     65% 0.0 mm 0 W/m2
18:34 12.0 °C 6.1 °C 1002.9 hPa Calm     67% 0.0 mm 0 W/m2
18:39 11.7 °C 6.2 °C 1002.9 hPa Calm     69% 0.0 mm 0 W/m2
18:44 11.7 °C 6.4 °C 1002.9 hPa Calm     70% 0.0 mm 0 W/m2
18:49 11.6 °C 6.3 °C 1002.9 hPa Calm     70% 0.0 mm 0 W/m2
18:54 11.5 °C 6.2 °C 1002.9 hPa Calm     70% 0.0 mm 0 W/m2
18:59 11.5 °C 6.2 °C 1003.3 hPa Calm     70% 0.0 mm 0 W/m2
19:04 11.4 °C 6.1 °C 1003.3 hPa Calm     70% 0.0 mm 0 W/m2
19:09 11.1 °C 6.2 °C 1003.3 hPa Calm     72% 0.0 mm 0 W/m2
19:14 11.0 °C 6.2 °C 1003.3 hPa Calm     72% 0.0 mm 0 W/m2
19:19 11.0 °C 6.2 °C 1003.3 hPa Calm     72% 0.0 mm 0 W/m2
19:24 10.9 °C 6.1 °C 1003.3 hPa Calm     72% 0.0 mm 0 W/m2
19:29 10.6 °C 5.9 °C 1003.6 hPa Calm     73% 0.0 mm 0 W/m2
19:34 10.6 °C 6.2 °C 1003.6 hPa Calm     74% 0.0 mm 0 W/m2
19:39 10.8 °C 6.2 °C 1003.6 hPa Calm     73% 0.0 mm 0 W/m2
19:44 10.6 °C 5.9 °C 1003.9 hPa Calm     73% 0.0 mm 0 W/m2
19:49 10.3 °C 5.7 °C 1003.6 hPa Calm   1.1 km/h 73% 0.0 mm 0 W/m2
19:54 10.2 °C 5.8 °C 1003.9 hPa Calm   1.1 km/h 74% 0.0 mm 0 W/m2
19:59 10.1 °C 5.7 °C 1003.9 hPa Calm   1.1 km/h 74% 0.0 mm 0 W/m2
20:04 10.3 °C 5.7 °C 1003.9 hPa Calm     73% 0.0 mm 0 W/m2
20:09 10.2 °C 5.6 °C 1003.9 hPa Calm     73% 0.0 mm 0 W/m2
20:14 10.2 °C 5.6 °C 1003.9 hPa Calm     73% 0.0 mm 0 W/m2
20:19 9.8 °C 5.4 °C 1003.9 hPa Calm     74% 0.0 mm 0 W/m2
20:24 9.6 °C 5.4 °C 1003.9 hPa Calm     75% 0.0 mm 0 W/m2
20:29 9.5 °C 5.3 °C 1003.9 hPa Calm     75% 0.0 mm 0 W/m2
20:34 9.2 °C 5.2 °C 1003.9 hPa Calm     76% 0.0 mm 0 W/m2
20:39 9.0 °C 5.0 °C 1004.3 hPa Calm     76% 0.0 mm 0 W/m2
20:44 8.9 °C 5.1 °C 1004.3 hPa Calm     77% 0.0 mm 0 W/m2
20:49 8.5 °C 5.1 °C 1004.6 hPa Calm     79% 0.0 mm 0 W/m2
20:54 8.4 °C 5.2 °C 1004.6 hPa Calm   1.1 km/h 80% 0.0 mm 0 W/m2
20:59 8.2 °C 5.1 °C 1004.3 hPa NW 1.1 km/h 3.5 km/h 81% 0.0 mm 0 W/m2
21:04 8.2 °C 5.3 °C 1004.6 hPa NNW 3.5 km/h 6.1 km/h 82% 0.0 mm 0 W/m2
21:10 8.2 °C 5.5 °C 1004.6 hPa NNW 1.1 km/h 7.2 km/h 83% 0.0 mm 0 W/m2
21:16 8.1 °C 5.4 °C 1004.6 hPa NW 3.5 km/h 6.1 km/h 83% 0.0 mm 0 W/m2
21:21 8.2 °C 5.5 °C 1004.6 hPa NW 1.1 km/h 6.1 km/h 83% 0.0 mm 0 W/m2
21:26 8.1 °C 5.2 °C 1004.6 hPa NW 3.5 km/h 6.1 km/h 82% 0.0 mm 0 W/m2
21:31 8.1 °C 5.2 °C 1004.6 hPa NW 3.5 km/h 7.2 km/h 82% 0.0 mm 0 W/m2
21:36 8.2 °C 5.3 °C 1004.6 hPa NW 1.1 km/h 7.2 km/h 82% 0.0 mm 0 W/m2
21:41 8.2 °C 5.1 °C 1004.6 hPa NW 1.1 km/h 6.1 km/h 81% 0.0 mm 0 W/m2
21:46 8.2 °C 4.9 °C 1004.6 hPa NW 1.1 km/h 6.1 km/h 80% 0.0 mm 0 W/m2
21:51 8.2 °C 4.9 °C 1004.6 hPa NW 2.6 km/h 5.0 km/h 80% 0.0 mm 0 W/m2
21:56 8.1 °C 4.8 °C 1004.6 hPa NW 2.6 km/h 5.0 km/h 80% 0.0 mm 0 W/m2
22:01 8.1 °C 4.8 °C 1004.6 hPa Calm   5.0 km/h 80% 0.0 mm 0 W/m2
22:06 8.2 °C 4.9 °C 1004.6 hPa NW 2.6 km/h 5.0 km/h 80% 0.0 mm 0 W/m2
22:11 8.3 °C 5.1 °C 1004.6 hPa NW 1.1 km/h 5.0 km/h 80% 0.0 mm 0 W/m2
22:17 8.1 °C 4.7 °C 1004.6 hPa Calm   5.0 km/h 79% 0.0 mm 0 W/m2
22:22 8.1 °C 4.7 °C 1004.6 hPa Calm   2.6 km/h 79% 0.0 mm 0 W/m2
22:27 8.0 °C 4.8 °C 1005.0 hPa NW 1.1 km/h 3.5 km/h 80% 0.0 mm 0 W/m2
22:32 7.9 °C 4.8 °C 1004.6 hPa NW 2.6 km/h 5.0 km/h 81% 0.0 mm 0 W/m2
22:37 7.8 °C 4.9 °C 1005.0 hPa Calm   5.0 km/h 82% 0.0 mm 0 W/m2
22:42 7.7 °C 4.8 °C 1005.0 hPa NNW 1.1 km/h 5.0 km/h 82% 0.0 mm 0 W/m2
22:47 7.5 °C 4.6 °C 1005.0 hPa NW 2.6 km/h 6.1 km/h 82% 0.0 mm 0 W/m2
22:52 7.6 °C 4.9 °C 1004.6 hPa NW 3.5 km/h 6.1 km/h 83% 0.0 mm 0 W/m2
22:57 7.6 °C 4.9 °C 1005.0 hPa NW 5.0 km/h 7.2 km/h 83% 0.0 mm 0 W/m2
23:02 7.5 °C 4.8 °C 1005.0 hPa NW 3.5 km/h 7.2 km/h 83% 0.0 mm 0 W/m2
23:07 7.5 °C 4.8 °C 1005.0 hPa NW 5.0 km/h 7.2 km/h 83% 0.0 mm 0 W/m2
23:12 7.4 °C 4.7 °C 1005.0 hPa NW 5.0 km/h 8.7 km/h 83% 0.0 mm 0 W/m2
23:17 7.2 °C 4.5 °C 1005.0 hPa NW 5.0 km/h 8.7 km/h 83% 0.0 mm 0 W/m2
23:22 7.0 °C 4.5 °C 1005.0 hPa NNW 3.5 km/h 7.2 km/h 84% 0.0 mm 0 W/m2
23:27 6.9 °C 4.6 °C 1004.6 hPa NW 3.5 km/h 7.2 km/h 85% 0.0 mm 0 W/m2
23:32 6.9 °C 4.6 °C 1005.0 hPa NW 3.5 km/h 8.7 km/h 85% 0.0 mm 0 W/m2
23:37 6.8 °C 4.6 °C 1005.0 hPa NW 5.0 km/h 11.1 km/h 86% 0.0 mm 0 W/m2
23:42 6.8 °C 4.6 °C 1005.0 hPa NW 5.0 km/h 11.1 km/h 86% 0.0 mm 0 W/m2
23:47 6.8 °C 4.6 °C 1005.0 hPa NW 3.5 km/h 9.7 km/h 86% 0.0 mm 0 W/m2
23:52 6.8 °C 4.8 °C 1005.0 hPa NW 3.5 km/h 9.7 km/h 87% 0.0 mm 0 W/m2
23:57 6.8 °C 4.8 °C 1005.0 hPa NW 5.0 km/h 8.7 km/h 87% 0.0 mm 0 W/m2
Northern Hawkes Bay. New Zealand Historic Data
Compliments of Weather Underground - 2 mb